Time;durP1;ratioP1;P1;durP2;ratioP2;P2;SDS_P1;SDS_P2;PMS_P1;PMS_P2;Temp;Humidity;BMP_temperature;BMP_pressure;BME280_temperature;BME280_humidity;BME280_pressure;Samples;Min_cycle;Max_cycle;Signal;HPM_P1;HPM_P2
2021/05/31 00:01:24;;;;;;;2.35;1.85;;;13.70;89.40;;;;;;5061823;28;20017;-87
2021/05/31 00:03:50;;;;;;;2.47;2.28;;;13.80;89.10;;;;;;5060161;28;20021;-86
2021/05/31 00:06:15;;;;;;;2.70;2.05;;;13.80;88.90;;;;;;5058685;28;20026;-87
2021/05/31 00:08:41;;;;;;;2.33;2.17;;;13.90;88.50;;;;;;5057558;28;20086;-86
2021/05/31 00:11:07;;;;;;;2.50;2.10;;;13.90;88.40;;;;;;5060108;28;20033;-86
2021/05/31 00:13:33;;;;;;;7.75;2.42;;;13.90;88.00;;;;;;5063474;28;20506;-86
2021/05/31 00:15:59;;;;;;;2.50;2.30;;;14.00;87.70;;;;;;5070450;28;20025;-86
2021/05/31 00:18:24;;;;;;;3.17;1.92;;;14.00;87.70;;;;;;5063295;28;20075;-86
2021/05/31 00:20:50;;;;;;;2.47;2.00;;;14.00;87.20;;;;;;5057730;28;20024;-87
2021/05/31 00:23:18;;;;;;;2.25;2.05;;;14.00;86.80;;;;;;5056959;28;20036;-88
2021/05/31 00:25:44;;;;;;;4.65;2.08;;;14.10;86.80;;;;;;5055588;28;20028;-89
2021/05/31 00:28:10;;;;;;;2.35;1.77;;;14.00;86.40;;;;;;5056311;28;20060;-88
2021/05/31 00:30:37;;;;;;;2.40;2.20;;;14.00;86.40;;;;;;5055265;28;20392;-89
2021/05/31 00:33:03;;;;;;;2.20;2.00;;;14.00;86.40;;;;;;5055480;28;20021;-88
2021/05/31 00:35:30;;;;;;;3.45;1.80;;;14.00;86.40;;;;;;5055153;28;20017;-88
2021/05/31 00:37:56;;;;;;;2.85;2.00;;;14.00;86.20;;;;;;5054994;28;20430;-89
2021/05/31 00:40:24;;;;;;;2.78;2.30;;;14.10;86.10;;;;;;5055043;28;20478;-87
2021/05/31 00:42:50;;;;;;;1.92;1.83;;;14.00;85.80;;;;;;5056182;28;20025;-88
2021/05/31 00:45:16;;;;;;;1.95;1.85;;;14.00;85.80;;;;;;5054592;28;20134;-86
2021/05/31 00:47:41;;;;;;;3.05;1.80;;;14.00;85.80;;;;;;5052747;28;20387;-87
2021/05/31 00:50:09;;;;;;;2.10;1.90;;;14.00;85.80;;;;;;5057207;28;20029;-86
2021/05/31 00:52:35;;;;;;;3.53;2.08;;;14.00;85.70;;;;;;5068154;28;20021;-87
2021/05/31 00:55:00;;;;;;;2.85;2.00;;;14.00;85.50;;;;;;5070329;28;20395;-87
2021/05/31 00:57:27;;;;;;;2.17;1.70;;;14.00;85.40;;;;;;5058669;28;20051;-87
2021/05/31 00:59:53;;;;;;;3.70;2.15;;;13.90;85.40;;;;;;5055392;28;20021;-87
2021/05/31 01:02:18;;;;;;;2.92;1.80;;;13.90;85.40;;;;;;5055072;28;20033;-83
2021/05/31 01:04:44;;;;;;;3.17;2.08;;;13.90;85.40;;;;;;5055540;28;20029;-83
2021/05/31 01:07:41;;;;;;;3.67;2.08;;;13.80;85.60;;;;;;5055520;28;20044;-82
2021/05/31 01:10:10;;;;;;;2.70;2.17;;;13.80;86.10;;;;;;5056084;28;20028;-82
2021/05/31 01:12:48;;;;;;;2.33;2.10;;;13.80;86.10;;;;;;5054164;28;20032;-83
2021/05/31 01:15:22;;;;;;;4.25;2.15;;;13.90;86.10;;;;;;5053959;28;20028;-83
2021/05/31 01:17:53;;;;;;;2.22;2.03;;;13.90;86.00;;;;;;5055547;28;20056;-83
2021/05/31 01:20:22;;;;;;;3.13;2.33;;;13.90;86.00;;;;;;5053495;28;20071;-83
2021/05/31 01:22:49;;;;;;;2.20;2.00;;;13.90;86.00;;;;;;5054141;28;20040;-83
2021/05/31 01:25:27;;;;;;;2.22;2.00;;;13.90;85.80;;;;;;5054345;28;20032;-82
2021/05/31 01:28:11;;;;;;;2.05;1.85;;;14.00;85.80;;;;;;5055739;28;20061;-83
2021/05/31 01:30:42;;;;;;;4.75;2.00;;;14.00;85.40;;;;;;5070532;28;20017;-84
2021/05/31 01:33:12;;;;;;;2.08;1.98;;;14.10;85.40;;;;;;5077674;28;20037;-84
2021/05/31 01:35:39;;;;;;;3.65;2.25;;;14.10;85.40;;;;;;5075726;28;20013;-82
2021/05/31 01:38:05;;;;;;;2.45;2.17;;;14.20;85.30;;;;;;5075237;28;20035;-85
2021/05/31 01:40:32;;;;;;;2.80;2.13;;;14.20;85.20;;;;;;5060251;28;20035;-86
2021/05/31 01:43:01;;;;;;;2.17;1.98;;;14.20;85.10;;;;;;5058045;28;20029;-85
2021/05/31 01:45:28;;;;;;;6.45;3.22;;;14.30;85.10;;;;;;5055799;28;20033;-85
2021/05/31 01:47:54;;;;;;;3.30;2.45;;;14.30;85.20;;;;;;5055255;28;20021;-87
2021/05/31 01:50:21;;;;;;;2.85;2.38;;;14.30;85.00;;;;;;5056215;28;20513;-86
2021/05/31 01:52:47;;;;;;;2.42;2.22;;;14.30;85.20;;;;;;5053810;28;20032;-86
2021/05/31 01:55:16;;;;;;;3.75;2.50;;;14.30;85.40;;;;;;5054823;28;20055;-85
2021/05/31 01:57:43;;;;;;;3.28;2.60;;;14.30;85.50;;;;;;5054885;28;20017;-86
2021/05/31 02:00:10;;;;;;;2.88;2.50;;;14.30;85.80;;;;;;5054514;28;20158;-86
2021/05/31 02:02:42;;;;;;;2.85;2.50;;;14.30;85.90;;;;;;5055412;28;20025;-89
2021/05/31 02:05:33;;;;;;;;;;;;;;;;;;;;;
2021/05/31 02:08:09;;;;;;;3.17;2.45;;;14.30;85.30;;;;;;5062922;28;20105;-87
2021/05/31 02:10:39;;;;;;;3.53;2.08;;;14.20;85.60;;;;;;5078298;28;20013;-86
2021/05/31 02:13:12;;;;;;;3.60;2.20;;;14.20;85.90;;;;;;5058197;28;20033;-86
2021/05/31 02:16:01;;;;;;;2.63;2.40;;;14.20;86.20;;;;;;5053827;28;20036;-87
2021/05/31 02:18:50;;;;;;;2.28;2.08;;;14.20;86.20;;;;;;5043267;28;20094;-87
2021/05/31 02:21:20;;;;;;;2.95;2.42;;;14.30;86.20;;;;;;5054138;28;20025;-87
2021/05/31 02:23:50;;;;;;;2.85;2.28;;;14.30;85.70;;;;;;5053513;28;20372;-86
2021/05/31 02:26:18;;;;;;;2.40;2.13;;;14.30;85.50;;;;;;5054411;28;20020;-86
2021/05/31 02:28:45;;;;;;;5.75;2.70;;;14.30;85.70;;;;;;5052550;28;20136;-87
2021/05/31 02:31:11;;;;;;;4.00;2.60;;;14.30;85.80;;;;;;5054420;28;20064;-87
2021/05/31 02:33:38;;;;;;;3.53;2.38;;;14.40;85.70;;;;;;5054239;28;20032;-87
2021/05/31 02:36:05;;;;;;;3.67;2.22;;;14.40;85.50;;;;;;5054429;28;20021;-87
2021/05/31 02:38:31;;;;;;;2.60;2.40;;;14.40;85.60;;;;;;5054187;28;20384;-87
2021/05/31 02:40:58;;;;;;;2.53;2.33;;;14.40;85.70;;;;;;5053718;28;20036;-83
2021/05/31 02:43:24;;;;;;;2.58;2.38;;;14.50;86.10;;;;;;5052580;28;20395;-83
2021/05/31 02:45:50;;;;;;;3.10;2.50;;;14.60;86.30;;;;;;5053201;28;20464;-83
2021/05/31 02:48:16;;;;;;;3.70;2.10;;;14.80;86.00;;;;;;5052647;28;20032;-83
2021/05/31 02:50:41;;;;;;;2.35;2.15;;;14.80;85.00;;;;;;5061834;28;20045;-82
2021/05/31 02:53:08;;;;;;;2.72;2.30;;;14.80;84.30;;;;;;5076849;28;20043;-83
2021/05/31 02:55:36;;;;;;;2.67;2.20;;;14.80;84.20;;;;;;5055533;28;20024;-87
2021/05/31 02:58:02;;;;;;;4.07;2.45;;;14.90;84.30;;;;;;5053439;28;20021;-89
2021/05/31 03:00:28;;;;;;;3.42;2.55;;;15.00;84.60;;;;;;5053017;28;20025;-88
2021/05/31 03:02:55;;;;;;;6.15;2.40;;;15.10;84.50;;;;;;5052595;28;20070;-88
2021/05/31 03:05:23;;;;;;;4.55;2.70;;;15.10;84.20;;;;;;5053950;28;20017;-88
2021/05/31 03:07:49;;;;;;;3.25;2.40;;;15.10;83.90;;;;;;5053160;28;20017;-88
2021/05/31 03:10:16;;;;;;;4.47;2.42;;;15.10;83.30;;;;;;5039361;28;20124;-87
2021/05/31 03:12:43;;;;;;;6.72;2.80;;;15.10;83.70;;;;;;5063058;28;20032;-87
2021/05/31 03:15:11;;;;;;;8.45;2.80;;;15.10;83.90;;;;;;5075733;28;20025;-87
2021/05/31 03:17:37;;;;;;;4.47;2.78;;;15.10;83.80;;;;;;5073395;28;20024;-87
2021/05/31 03:20:07;;;;;;;3.17;2.70;;;15.10;83.80;;;;;;5072105;28;20382;-86
2021/05/31 03:22:33;;;;;;;3.30;2.75;;;15.10;83.50;;;;;;5061730;28;20086;-87
2021/05/31 03:24:59;;;;;;;5.65;2.83;;;15.10;83.30;;;;;;5058959;28;20387;-86
2021/05/31 03:27:25;;;;;;;5.38;2.90;;;15.10;83.50;;;;;;5067453;28;20017;-84
2021/05/31 03:29:51;;;;;;;3.03;2.40;;;15.10;83.60;;;;;;5079179;28;20043;-86
2021/05/31 03:32:16;;;;;;;3.33;3.00;;;15.10;83.50;;;;;;5056340;28;20121;-87
2021/05/31 03:34:42;;;;;;;3.30;2.97;;;15.10;83.30;;;;;;5041368;28;20119;-87
2021/05/31 03:37:09;;;;;;;3.67;2.75;;;15.10;83.20;;;;;;5055625;28;20025;-86
2021/05/31 03:39:35;;;;;;;4.13;2.72;;;15.20;83.00;;;;;;5055225;28;20029;-85
2021/05/31 03:42:01;;;;;;;4.88;2.63;;;15.20;83.10;;;;;;5055239;28;20449;-86
2021/05/31 03:44:26;;;;;;;5.40;3.00;;;15.20;82.80;;;;;;5055630;28;20037;-86
2021/05/31 03:46:52;;;;;;;4.13;2.90;;;15.20;82.20;;;;;;5038773;28;20395;-86
2021/05/31 03:49:18;;;;;;;9.05;2.95;;;15.20;81.90;;;;;;5055598;28;20162;-86
2021/05/31 03:51:45;;;;;;;6.25;2.83;;;15.00;81.90;;;;;;5054730;28;20132;-86
2021/05/31 03:54:14;;;;;;;3.22;2.92;;;15.00;82.20;;;;;;5054781;28;20108;-86
2021/05/31 03:56:42;;;;;;;5.10;2.80;;;15.00;82.70;;;;;;5054458;28;20365;-86
2021/05/31 03:59:09;;;;;;;3.78;2.92;;;15.10;82.90;;;;;;5054543;28;20063;-87
2021/05/31 04:01:35;;;;;;;7.75;3.35;;;15.10;82.70;;;;;;5055292;28;20029;-88
2021/05/31 04:04:01;;;;;;;3.47;2.75;;;15.20;82.60;;;;;;5070303;28;20005;-86
2021/05/31 04:11:55;;;;;;;5.90;2.63;;;15.30;81.50;;;;;;5058096;28;20071;-88
2021/05/31 04:14:20;;;;;;;12.00;3.40;;;15.20;81.10;;;;;;5056699;28;20016;-89
2021/05/31 04:16:51;;;;;;;5.53;2.60;;;15.20;80.90;;;;;;5055742;28;20021;-89
2021/05/31 04:19:20;;;;;;;2.65;2.45;;;15.20;81.40;;;;;;5055655;28;20178;-88
2021/05/31 04:21:48;;;;;;;3.35;2.75;;;15.20;81.50;;;;;;5056989;28;20029;-89
2021/05/31 04:24:14;;;;;;;4.72;2.65;;;15.40;81.50;;;;;;5055683;28;20074;-89
2021/05/31 04:26:41;;;;;;;5.32;3.05;;;15.40;81.10;;;;;;5055598;28;20021;-89
2021/05/31 04:29:11;;;;;;;9.40;3.90;;;15.40;80.50;;;;;;5054886;28;20057;-89
2021/05/31 04:31:40;;;;;;;5.32;2.70;;;15.40;80.40;;;;;;5054760;28;20057;-88
2021/05/31 04:34:09;;;;;;;10.02;2.60;;;15.40;80.60;;;;;;5056105;28;20025;-90
2021/05/31 04:36:35;;;;;;;6.22;2.58;;;15.40;79.80;;;;;;5063629;28;20025;-89
2021/05/31 04:39:04;;;;;;;6.50;2.47;;;15.40;79.40;;;;;;5066262;28;20039;-88
2021/05/31 04:41:30;;;;;;;4.43;2.92;;;15.40;80.10;;;;;;5076405;28;20029;-88
2021/05/31 04:43:56;;;;;;;5.60;2.90;;;15.40;79.20;;;;;;5077810;28;20025;-89
2021/05/31 04:46:22;;;;;;;3.25;2.95;;;15.30;79.60;;;;;;5069635;28;20029;-87
2021/05/31 04:48:47;;;;;;;5.13;2.85;;;15.40;79.90;;;;;;5062646;28;20060;-87
2021/05/31 04:51:13;;;;;;;5.65;2.40;;;15.40;79.90;;;;;;5060089;28;20029;-87
2021/05/31 04:53:39;;;;;;;2.10;2.00;;;15.50;79.60;;;;;;5055296;28;20028;-85
2021/05/31 04:56:08;;;;;;;5.60;2.30;;;15.50;79.00;;;;;;5055063;28;20460;-85
2021/05/31 04:58:34;;;;;;;3.90;2.03;;;15.50;78.10;;;;;;5054477;28;20472;-86
2021/05/31 05:00:59;;;;;;;2.10;1.73;;;15.50;77.80;;;;;;5056105;28;20032;-87
2021/05/31 05:03:25;;;;;;;2.30;2.10;;;15.50;77.60;;;;;;5055566;28;20064;-86
2021/05/31 05:05:51;;;;;;;6.40;3.70;;;15.50;77.60;;;;;;5055511;28;20021;-86
2021/05/31 05:08:17;;;;;;;10.23;3.63;;;15.50;77.40;;;;;;5054153;28;20482;-88
2021/05/31 05:10:43;;;;;;;11.80;7.63;;;15.50;78.00;;;;;;5055280;28;20029;-87
2021/05/31 05:13:09;;;;;;;4.45;3.60;;;15.50;78.50;;;;;;5054255;28;20021;-86
2021/05/31 05:15:35;;;;;;;6.50;3.17;;;15.50;78.40;;;;;;5055733;28;20021;-87
2021/05/31 05:18:01;;;;;;;4.63;3.38;;;15.50;78.50;;;;;;5065410;28;20116;-86
2021/05/31 05:20:28;;;;;;;10.60;4.20;;;15.40;78.80;;;;;;5072136;28;20056;-87
2021/05/31 05:22:55;;;;;;;8.27;3.95;;;15.40;79.10;;;;;;5055553;28;20021;-87
2021/05/31 05:25:21;;;;;;;7.05;2.80;;;15.50;79.20;;;;;;5058488;28;20029;-87
2021/05/31 05:27:50;;;;;;;5.97;4.78;;;15.60;79.30;;;;;;5055695;28;20175;-87
2021/05/31 05:30:19;;;;;;;4.85;3.22;;;15.60;78.70;;;;;;5056497;28;20021;-88
2021/05/31 05:32:50;;;;;;;6.57;3.03;;;15.60;78.40;;;;;;5054967;28;20040;-87
2021/05/31 05:35:26;;;;;;;6.82;3.20;;;15.70;78.60;;;;;;5054286;28;20021;-86
2021/05/31 05:41:18;;;;;;;5.65;3.22;;;15.80;77.60;;;;;;5068122;28;20053;-86
2021/05/31 05:43:30;;;;;;;6.03;3.00;;;15.80;77.30;;;;;;5060300;28;20040;-85
2021/05/31 05:48:40;;;;;;;8.82;3.08;;;15.90;77.50;;;;;;5063338;28;20028;-86
2021/05/31 05:51:07;;;;;;;7.35;3.10;;;15.90;76.80;;;;;;5055580;28;20119;-87
2021/05/31 05:53:37;;;;;;;3.45;2.67;;;16.00;76.90;;;;;;5056836;28;20052;-87
2021/05/31 05:56:06;;;;;;;5.72;2.90;;;16.00;76.80;;;;;;5056048;28;20423;-84
2021/05/31 05:58:33;;;;;;;3.10;2.80;;;16.10;76.60;;;;;;5057410;28;20020;-86
2021/05/31 06:01:01;;;;;;;5.20;3.35;;;16.10;76.20;;;;;;5072147;28;20040;-87
2021/05/31 06:03:27;;;;;;;5.82;3.60;;;16.10;75.50;;;;;;5065177;28;20072;-90
2021/05/31 06:06:25;;;;;;;4.32;2.97;;;16.00;75.80;;;;;;5059014;28;20033;-90
2021/05/31 06:08:51;;;;;;;5.18;3.03;;;16.00;76.10;;;;;;5049334;28;20060;-90
2021/05/31 06:11:18;;;;;;;12.55;3.83;;;16.10;76.20;;;;;;5057126;28;20033;-86
2021/05/31 06:13:44;;;;;;;11.45;4.80;;;16.10;76.10;;;;;;5052606;28;20505;-87
2021/05/31 06:16:11;;;;;;;5.25;2.35;;;16.10;76.20;;;;;;5054677;28;20066;-84
2021/05/31 06:18:38;;;;;;;4.03;2.55;;;16.20;75.80;;;;;;5054139;28;20013;-86
2021/05/31 06:21:05;;;;;;;2.50;1.98;;;16.30;75.40;;;;;;5054175;28;20036;-84
2021/05/31 06:23:30;;;;;;;2.92;1.90;;;16.40;74.80;;;;;;5052648;28;20326;-87
2021/05/31 06:25:56;;;;;;;3.50;2.20;;;16.40;74.10;;;;;;5053937;28;20032;-85
2021/05/31 06:28:22;;;;;;;4.00;2.22;;;16.40;73.50;;;;;;5065075;28;20048;-87
2021/05/31 06:30:48;;;;;;;6.47;3.60;;;16.40;72.80;;;;;;5064074;28;20078;-88
2021/05/31 06:33:16;;;;;;;6.57;4.75;;;16.40;73.30;;;;;;5056583;28;20017;-88
2021/05/31 06:35:42;;;;;;;7.70;3.95;;;16.40;73.80;;;;;;5061118;28;20029;-89
2021/05/31 06:38:08;;;;;;;9.05;3.67;;;16.50;73.90;;;;;;5073247;28;20160;-87
2021/05/31 06:40:33;;;;;;;3.67;3.05;;;16.60;74.00;;;;;;5053846;28;20100;-84
2021/05/31 06:43:00;;;;;;;6.72;3.10;;;16.60;73.90;;;;;;5053967;28;20104;-85
2021/05/31 06:45:29;;;;;;;4.88;3.85;;;16.70;73.60;;;;;;5052006;28;20017;-85
2021/05/31 06:47:58;;;;;;;3.65;3.35;;;16.80;73.50;;;;;;5052712;28;20017;-86
2021/05/31 06:50:25;;;;;;;8.05;3.80;;;16.80;73.30;;;;;;5053107;28;20036;-85
2021/05/31 06:52:51;;;;;;;6.72;3.53;;;16.80;73.30;;;;;;5053529;28;20514;-85
2021/05/31 06:55:18;;;;;;;12.95;4.72;;;16.80;73.10;;;;;;5052293;28;20063;-87
2021/05/31 06:57:46;;;;;;;8.18;3.67;;;16.80;72.90;;;;;;5053495;28;20428;-86
2021/05/31 07:00:13;;;;;;;6.93;4.15;;;16.90;72.90;;;;;;5052283;28;20102;-88
2021/05/31 07:02:39;;;;;;;5.90;3.78;;;16.80;72.70;;;;;;5054089;28;20029;-89
2021/05/31 07:05:07;;;;;;;5.60;4.10;;;16.80;72.70;;;;;;5051497;28;20029;-87
2021/05/31 07:07:33;;;;;;;4.53;3.65;;;16.80;72.50;;;;;;5052705;28;20029;-86
2021/05/31 07:09:58;;;;;;;6.80;3.17;;;16.80;72.60;;;;;;5052260;28;20195;-87
2021/05/31 07:12:24;;;;;;;6.22;3.15;;;16.70;72.20;;;;;;5059482;28;20110;-88
2021/05/31 07:14:52;;;;;;;10.57;4.25;;;16.60;71.50;;;;;;5067161;28;20043;-86
2021/05/31 07:17:18;;;;;;;8.18;3.55;;;16.50;71.60;;;;;;5052339;28;20028;-86
2021/05/31 07:19:45;;;;;;;5.30;3.75;;;16.50;72.40;;;;;;5051945;28;20071;-86
2021/05/31 07:22:16;;;;;;;5.90;3.38;;;16.60;72.90;;;;;;5051340;28;20025;-88
2021/05/31 07:24:42;;;;;;;8.13;3.10;;;16.60;72.90;;;;;;5051870;28;20021;-88
2021/05/31 07:27:09;;;;;;;4.55;2.85;;;16.80;72.70;;;;;;5052754;28;20387;-87
2021/05/31 07:29:35;;;;;;;5.80;2.60;;;16.80;72.30;;;;;;5051687;28;20052;-89
2021/05/31 07:32:01;;;;;;;5.88;2.78;;;16.90;71.70;;;;;;5052861;28;20033;-88
2021/05/31 07:34:27;;;;;;;3.03;2.63;;;17.00;71.30;;;;;;5053213;28;20028;-88
2021/05/31 07:36:52;;;;;;;4.65;3.03;;;17.00;70.40;;;;;;5051689;28;20374;-87
2021/05/31 07:39:18;;;;;;;3.67;3.00;;;17.00;70.50;;;;;;5052489;28;20094;-88
2021/05/31 07:41:44;;;;;;;6.22;3.10;;;17.10;70.60;;;;;;5052492;28;20021;-87
2021/05/31 07:44:10;;;;;;;3.30;3.00;;;17.20;70.80;;;;;;5052468;28;20380;-87
2021/05/31 07:46:35;;;;;;;5.72;3.72;;;17.30;70.40;;;;;;5051113;28;20041;-86
2021/05/31 07:49:01;;;;;;;4.28;3.40;;;17.30;69.70;;;;;;5052238;28;20033;-86
2021/05/31 07:51:28;;;;;;;5.03;2.75;;;17.40;69.70;;;;;;5052951;28;20422;-86
2021/05/31 07:53:56;;;;;;;5.70;3.05;;;17.50;69.60;;;;;;5073245;28;20080;-87
2021/05/31 07:56:27;;;;;;;6.47;4.03;;;17.60;69.40;;;;;;5058497;28;20028;-87
2021/05/31 07:58:57;;;;;;;5.00;2.80;;;17.80;69.20;;;;;;5055661;28;20024;-84
2021/05/31 08:01:24;;;;;;;7.28;3.95;;;17.90;68.70;;;;;;5056622;28;20451;-88
2021/05/31 08:03:50;;;;;;;4.47;2.70;;;18.10;68.30;;;;;;5055444;28;20132;-92
2021/05/31 08:06:16;;;;;;;11.48;5.60;;;18.20;67.80;;;;;;5056165;28;20115;-85
2021/05/31 08:08:42;;;;;;;8.20;4.18;;;18.40;67.50;;;;;;5058125;28;20491;-87
2021/05/31 08:11:12;;;;;;;17.92;9.48;;;18.50;67.00;;;;;;5059365;28;20399;-87
2021/05/31 08:13:38;;;;;;;21.45;8.95;;;18.60;66.80;;;;;;5061742;28;20025;-88
2021/05/31 08:16:06;;;;;;;21.13;10.02;;;18.70;66.60;;;;;;5055534;28;20020;-87
2021/05/31 08:18:31;;;;;;;9.77;6.18;;;18.70;67.00;;;;;;5054981;28;20047;-87
2021/05/31 08:20:57;;;;;;;7.18;4.18;;;18.80;66.00;;;;;;5055539;28;20492;-86
2021/05/31 08:23:23;;;;;;;4.85;2.78;;;18.70;65.40;;;;;;5054366;28;20032;-87
2021/05/31 08:25:49;;;;;;;8.07;3.92;;;18.60;65.30;;;;;;5055815;28;20029;-87
2021/05/31 08:28:15;;;;;;;6.80;3.30;;;18.50;65.40;;;;;;5063082;28;20120;-87
2021/05/31 08:30:42;;;;;;;7.35;3.45;;;18.40;65.60;;;;;;5064669;28;20013;-86
2021/05/31 08:33:08;;;;;;;5.13;3.05;;;18.30;65.70;;;;;;5065742;28;20040;-86
2021/05/31 08:35:38;;;;;;;4.88;3.15;;;18.20;65.70;;;;;;5055979;28;20033;-86
2021/05/31 08:38:04;;;;;;;7.65;3.70;;;18.10;65.70;;;;;;5054580;28;20054;-87
2021/05/31 08:40:30;;;;;;;9.88;3.20;;;18.00;66.00;;;;;;5055749;28;20076;-86
2021/05/31 08:42:57;;;;;;;6.18;2.78;;;17.90;66.10;;;;;;5055447;28;20029;-87
2021/05/31 08:45:25;;;;;;;7.93;3.40;;;17.90;66.10;;;;;;5056947;28;20031;-87
2021/05/31 08:47:53;;;;;;;4.15;2.58;;;17.90;66.10;;;;;;5055391;28;20028;-87
2021/05/31 08:50:24;;;;;;;2.90;2.60;;;17.90;66.10;;;;;;5055175;28;20074;-86
2021/05/31 08:52:52;;;;;;;2.92;2.45;;;18.00;65.70;;;;;;5055607;28;20049;-86
2021/05/31 08:55:19;;;;;;;3.63;2.60;;;17.90;65.70;;;;;;5053595;28;20450;-87
2021/05/31 08:57:45;;;;;;;3.97;3.20;;;18.00;65.70;;;;;;5055004;28;20047;-88
2021/05/31 09:00:15;;;;;;;2.70;2.50;;;17.90;65.60;;;;;;5054691;28;20066;-88
2021/05/31 09:02:41;;;;;;;3.70;2.63;;;17.80;65.00;;;;;;5057496;28;20097;-89
2021/05/31 09:05:08;;;;;;;3.45;2.33;;;17.70;65.40;;;;;;5068530;28;20029;-88
2021/05/31 09:07:37;;;;;;;4.90;2.20;;;17.70;65.70;;;;;;5068532;28;20032;-90
2021/05/31 09:10:07;;;;;;;7.53;2.75;;;17.70;65.80;;;;;;5058272;28;20021;-86
2021/05/31 09:12:38;;;;;;;6.75;3.28;;;17.60;65.10;;;;;;5055087;28;20021;-88
2021/05/31 09:15:10;;;;;;;3.40;2.78;;;17.30;65.10;;;;;;5054503;28;20017;-87
2021/05/31 09:17:37;;;;;;;4.57;2.88;;;17.10;66.40;;;;;;5053604;28;20059;-87
2021/05/31 09:20:04;;;;;;;5.95;2.50;;;17.00;66.00;;;;;;5054993;28;20462;-87
2021/05/31 09:22:30;;;;;;;5.55;2.72;;;16.80;66.30;;;;;;5054492;28;20525;-88
2021/05/31 09:25:04;;;;;;;2.35;2.10;;;16.70;66.90;;;;;;5054473;28;20032;-88
2021/05/31 09:27:31;;;;;;;2.10;2.00;;;16.70;67.50;;;;;;5052870;28;20452;-87
2021/05/31 09:30:03;;;;;;;4.05;1.83;;;17.00;67.70;;;;;;5054247;28;20021;-88
2021/05/31 09:32:29;;;;;;;1.83;1.73;;;17.10;66.90;;;;;;5052751;28;20120;-87
2021/05/31 09:35:00;;;;;;;9.18;2.55;;;17.20;66.40;;;;;;5052784;28;20033;-87
2021/05/31 09:37:27;;;;;;;12.77;4.32;;;17.30;66.00;;;;;;5053759;28;20442;-87
2021/05/31 09:40:16;;;;;;;6.53;3.40;;;17.30;66.30;;;;;;5054688;28;20020;-87
2021/05/31 09:42:55;;;;;;;4.25;2.13;;;17.60;66.10;;;;;;5057160;28;20028;-86
2021/05/31 09:45:22;;;;;;;5.75;2.35;;;17.80;65.20;;;;;;5058031;28;20112;-85
2021/05/31 09:47:48;;;;;;;3.30;2.13;;;17.80;65.00;;;;;;5055551;28;20033;-88
2021/05/31 09:50:25;;;;;;;5.40;2.00;;;18.00;64.80;;;;;;5054764;28;20035;-88
2021/05/31 09:53:07;;;;;;;2.50;1.85;;;18.40;64.40;;;;;;5052955;28;20115;-86
2021/05/31 09:55:34;;;;;;;4.15;2.30;;;18.60;63.00;;;;;;5053996;28;20040;-86
2021/05/31 09:58:05;;;;;;;2.30;2.00;;;18.60;63.00;;;;;;5053859;28;20040;-86
2021/05/31 10:00:32;;;;;;;2.72;2.53;;;18.80;63.10;;;;;;5052637;28;20112;-86
2021/05/31 10:10:38;;;;;;;7.25;2.00;;;19.80;60.90;;;;;;5053933;28;20459;-86
2021/05/31 10:13:05;;;;;;;1.70;1.60;;;19.90;60.60;;;;;;5053407;28;20025;-87
2021/05/31 10:15:35;;;;;;;4.00;1.60;;;20.00;60.10;;;;;;5053517;28;20025;-87
2021/05/31 10:18:03;;;;;;;1.77;1.60;;;20.20;59.40;;;;;;5052089;28;20087;-87
2021/05/31 10:20:30;;;;;;;1.77;1.60;;;20.30;59.20;;;;;;5058730;28;20277;-86
2021/05/31 10:22:56;;;;;;;2.55;2.35;;;20.40;58.90;;;;;;5074128;28;20029;-86
2021/05/31 10:25:25;;;;;;;3.63;1.80;;;20.60;58.80;;;;;;5054694;28;20036;-88
2021/05/31 10:27:54;;;;;;;2.28;1.95;;;20.70;58.40;;;;;;5054262;28;20061;-86
2021/05/31 10:30:20;;;;;;;8.00;5.78;;;20.80;58.00;;;;;;5053512;28;20032;-87
2021/05/31 10:32:47;;;;;;;2.30;2.10;;;20.90;57.70;;;;;;5052893;28;20078;-87
2021/05/31 10:35:22;;;;;;;2.05;1.85;;;20.80;57.00;;;;;;5049440;28;20138;-82
2021/05/31 10:37:53;;;;;;;4.25;2.50;;;20.60;57.00;;;;;;5051158;28;20032;-81
2021/05/31 10:40:19;;;;;;;3.67;2.65;;;20.50;57.00;;;;;;5051631;28;20074;-82
2021/05/31 10:42:50;;;;;;;2.00;1.70;;;20.20;56.70;;;;;;5051278;28;20075;-81
2021/05/31 10:45:22;;;;;;;2.00;1.90;;;19.90;57.10;;;;;;5051169;28;20025;-81
2021/05/31 10:47:59;;;;;;;1.52;1.30;;;19.60;57.60;;;;;;5049243;28;20049;-82
2021/05/31 10:50:34;;;;;;;3.35;1.50;;;19.60;58.10;;;;;;5048978;28;20436;-81
2021/05/31 10:53:00;;;;;;;2.10;1.88;;;19.70;58.20;;;;;;5049765;28;20028;-83
2021/05/31 10:55:27;;;;;;;2.35;2.15;;;19.80;57.90;;;;;;5049846;28;20021;-82
2021/05/31 10:57:55;;;;;;;1.73;1.63;;;20.00;57.70;;;;;;5050924;28;20078;-87
2021/05/31 11:00:29;;;;;;;1.60;1.50;;;20.20;57.70;;;;;;5067276;28;20036;-86
2021/05/31 11:03:10;;;;;;;3.03;1.50;;;20.30;57.10;;;;;;5064863;28;20053;-85
2021/05/31 11:05:37;;;;;;;2.40;1.88;;;20.50;56.70;;;;;;5053987;28;20019;-87
2021/05/31 11:08:04;;;;;;;2.33;2.13;;;20.70;56.70;;;;;;5051582;28;20025;-87
2021/05/31 11:10:33;;;;;;;3.17;2.63;;;20.80;56.50;;;;;;5051843;28;20364;-87
2021/05/31 11:13:14;;;;;;;1.88;1.77;;;21.00;56.00;;;;;;5052775;28;20055;-84
2021/05/31 11:15:40;;;;;;;3.63;2.17;;;20.90;55.70;;;;;;5052381;28;20028;-83
2021/05/31 11:18:06;;;;;;;5.22;2.60;;;20.80;56.40;;;;;;5052853;28;20101;-84
2021/05/31 11:20:33;;;;;;;2.63;2.00;;;20.40;55.40;;;;;;5053527;28;20048;-85
2021/05/31 11:23:01;;;;;;;3.90;2.50;;;19.80;56.00;;;;;;5052971;28;20071;-86
2021/05/31 11:25:32;;;;;;;4.57;2.10;;;19.40;57.30;;;;;;5054344;28;20083;-86
2021/05/31 11:28:00;;;;;;;3.42;1.95;;;19.00;58.00;;;;;;5053489;28;20248;-85
2021/05/31 11:30:34;;;;;;;2.20;1.85;;;18.80;59.00;;;;;;5053136;28;20025;-86
2021/05/31 11:33:03;;;;;;;6.53;2.30;;;18.70;59.60;;;;;;5058523;28;20044;-86
2021/05/31 11:35:31;;;;;;;4.50;2.28;;;18.70;59.50;;;;;;5067620;28;19997;-83
2021/05/31 11:37:58;;;;;;;2.70;2.03;;;18.70;59.40;;;;;;5069696;28;20040;-86
2021/05/31 11:40:25;;;;;;;4.03;2.53;;;18.40;59.20;;;;;;5056643;28;20108;-86
2021/05/31 11:42:53;;;;;;;5.75;4.38;;;18.30;60.20;;;;;;5056359;28;20044;-85
2021/05/31 11:45:22;;;;;;;2.17;1.95;;;18.60;60.80;;;;;;5056226;28;20021;-85
2021/05/31 11:47:59;;;;;;;1.55;1.40;;;18.60;59.80;;;;;;5054833;28;20025;-85
2021/05/31 11:50:27;;;;;;;7.43;5.28;;;18.70;59.60;;;;;;5055249;28;20138;-84
2021/05/31 11:52:53;;;;;;;2.05;1.85;;;18.70;59.70;;;;;;5056397;28;20162;-85
2021/05/31 11:55:27;;;;;;;2.75;1.58;;;18.70;59.20;;;;;;5056103;28;20021;-84
2021/05/31 11:57:53;;;;;;;5.60;1.75;;;18.70;59.40;;;;;;5054702;28;20079;-84
2021/05/31 12:00:26;;;;;;;2.72;1.80;;;18.70;59.70;;;;;;5055815;28;20020;-86
2021/05/31 12:02:52;;;;;;;3.05;1.95;;;18.80;59.90;;;;;;5055766;28;20075;-85
2021/05/31 12:05:37;;;;;;;6.13;2.85;;;18.80;59.90;;;;;;5056154;28;20433;-84
2021/05/31 12:08:14;;;;;;;5.00;2.60;;;18.90;59.50;;;;;;5055001;28;20029;-85
2021/05/31 12:10:42;;;;;;;1.52;1.42;;;19.10;59.30;;;;;;5058024;28;20025;-85
2021/05/31 12:13:08;;;;;;;6.18;2.17;;;19.20;58.90;;;;;;5063456;28;20044;-86
2021/05/31 12:15:35;;;;;;;2.10;1.63;;;19.40;58.70;;;;;;5056558;28;20021;-84
2021/05/31 12:18:12;;;;;;;3.05;1.67;;;19.50;58.50;;;;;;5054988;28;20115;-85
2021/05/31 12:20:38;;;;;;;1.90;1.55;;;19.60;57.90;;;;;;5056431;28;20029;-85
2021/05/31 12:23:17;;;;;;;2.88;1.88;;;19.60;57.60;;;;;;5055618;28;20109;-85
2021/05/31 12:25:43;;;;;;;8.20;2.33;;;19.60;58.10;;;;;;5056124;28;20017;-83
2021/05/31 12:28:09;;;;;;;1.63;1.52;;;19.50;58.50;;;;;;5055595;28;20049;-85
2021/05/31 12:30:34;;;;;;;1.42;1.30;;;19.40;58.70;;;;;;5055783;28;20074;-85
2021/05/31 12:33:10;;;;;;;1.60;1.50;;;19.40;58.70;;;;;;5055579;28;20029;-85
2021/05/31 12:35:36;;;;;;;1.50;1.40;;;19.20;58.20;;;;;;5055515;28;20167;-85
2021/05/31 12:38:01;;;;;;;2.40;1.98;;;19.10;58.50;;;;;;5055433;28;20525;-86
2021/05/31 12:40:30;;;;;;;1.13;1.08;;;19.00;59.20;;;;;;5054703;28;20082;-85
2021/05/31 12:42:56;;;;;;;4.25;1.73;;;19.00;59.50;;;;;;5052866;28;20731;-85
2021/05/31 12:45:22;;;;;;;3.65;2.00;;;19.00;59.70;;;;;;5056687;28;20052;-84
2021/05/31 12:47:50;;;;;;;1.67;1.25;;;19.10;59.80;;;;;;5061095;28;20375;-85
2021/05/31 12:50:27;;;;;;;2.15;1.63;;;19.20;59.90;;;;;;5063622;28;20056;-87
2021/05/31 12:52:52;;;;;;;1.30;1.25;;;19.30;59.90;;;;;;5056990;28;20109;-85
2021/05/31 12:55:25;;;;;;;5.30;2.15;;;19.30;59.60;;;;;;5057561;28;20143;-86
2021/05/31 12:57:51;;;;;;;1.70;1.60;;;19.10;59.30;;;;;;5054845;28;20378;-85
2021/05/31 13:00:37;;;;;;;2.22;1.92;;;18.90;59.60;;;;;;5055760;28;20025;-86
2021/05/31 13:03:03;;;;;;;1.45;1.30;;;18.80;60.10;;;;;;5054583;28;20169;-84
2021/05/31 13:05:39;;;;;;;4.47;2.05;;;18.70;60.00;;;;;;5055872;28;20029;-85
2021/05/31 13:08:08;;;;;;;1.58;1.48;;;18.50;59.90;;;;;;5054630;28;20021;-85
2021/05/31 13:10:40;;;;;;;3.08;1.90;;;18.30;60.40;;;;;;5056001;28;20028;-84
2021/05/31 13:13:11;;;;;;;1.80;1.40;;;18.20;60.70;;;;;;5038255;28;20395;-84